createdAt,value
2023-04-11T00:01:39.476Z,6.13
2023-04-11T00:04:07.928Z,6.10
2023-04-11T00:06:36.204Z,6.11
2023-04-11T00:09:05.589Z,6.06
2023-04-11T00:11:33.508Z,6.14
2023-04-11T00:14:01.413Z,6.14
2023-04-11T00:16:29.286Z,6.15
2023-04-11T00:18:58.029Z,6.07
2023-04-11T00:21:26.029Z,6.03
2023-04-11T00:23:54.134Z,5.96
2023-04-11T00:26:23.512Z,5.96
2023-04-11T00:28:51.479Z,5.92
2023-04-11T00:31:19.410Z,5.91
2023-04-11T00:33:47.293Z,5.87
2023-04-11T00:36:15.364Z,5.83
2023-04-11T00:38:44.808Z,5.78
2023-04-11T00:41:12.963Z,5.78
2023-04-11T00:43:42.239Z,5.76
2023-04-11T00:46:10.324Z,5.81
2023-04-11T00:48:38.343Z,5.80
2023-04-11T00:51:06.571Z,5.76
2023-04-11T00:53:35.953Z,5.84
2023-04-11T00:56:04.044Z,5.87
2023-04-11T00:58:33.936Z,5.91
2023-04-11T01:01:09.239Z,5.94
2023-04-11T01:03:37.921Z,5.91
2023-04-11T01:06:07.625Z,5.92
2023-04-11T01:08:37.492Z,5.88
2023-04-11T01:11:06.485Z,5.78
2023-04-11T01:13:35.292Z,5.91
2023-04-11T01:16:05.203Z,5.92
2023-04-11T01:18:33.423Z,5.96
2023-04-11T01:21:01.648Z,5.93
2023-04-11T01:23:30.967Z,5.91
2023-04-11T01:25:58.875Z,5.85
2023-04-11T01:28:26.795Z,5.95
2023-04-11T01:30:54.679Z,5.99
2023-04-11T01:33:22.688Z,6.02
2023-04-11T01:35:52.794Z,6.02
2023-04-11T01:38:20.746Z,5.98
2023-04-11T01:40:50.209Z,6.00
2023-04-11T01:43:18.128Z,5.95
2023-04-11T01:45:46.504Z,5.92
2023-04-11T01:50:44.115Z,5.83
2023-04-11T01:53:12.002Z,5.73
2023-04-11T01:55:39.855Z,5.81
2023-04-11T01:58:09.046Z,5.81
2023-04-11T02:00:37.884Z,5.76
2023-04-11T02:03:06.435Z,5.75
2023-04-11T02:05:34.418Z,5.76
2023-04-11T02:08:02.355Z,5.64
2023-04-11T02:10:30.355Z,5.57
2023-04-11T02:12:58.391Z,5.65
2023-04-11T02:15:27.782Z,5.65
2023-04-11T02:17:55.815Z,5.66
2023-04-11T02:20:24.125Z,5.59
2023-04-11T02:22:56.439Z,5.59
2023-04-11T02:25:24.296Z,5.60
2023-04-11T02:27:52.151Z,5.63
2023-04-11T02:30:20.032Z,5.62
2023-04-11T02:32:49.559Z,5.63
2023-04-11T02:35:17.851Z,5.62
2023-04-11T02:37:45.688Z,5.64
2023-04-11T02:40:13.779Z,5.64
2023-04-11T02:42:43.464Z,5.66
2023-04-11T02:45:12.784Z,5.61
2023-04-11T02:47:40.748Z,5.64
2023-04-11T02:50:11.209Z,5.56
2023-04-11T02:52:42.134Z,5.62
2023-04-11T02:55:10.646Z,5.50
2023-04-11T02:57:38.479Z,5.48
2023-04-11T03:00:09.062Z,5.46
2023-04-11T03:02:37.218Z,5.44
2023-04-11T03:05:06.491Z,5.41
2023-04-11T03:07:38.521Z,5.32
2023-04-11T03:10:07.646Z,5.36
2023-04-11T03:12:35.596Z,5.32
2023-04-11T03:15:03.609Z,5.35
2023-04-11T03:17:31.604Z,5.33
2023-04-11T03:19:59.636Z,5.31
2023-04-11T03:22:27.506Z,5.31
2023-04-11T03:24:56.766Z,5.31
2023-04-11T03:27:24.686Z,5.28
2023-04-11T03:29:52.706Z,5.28
2023-04-11T03:32:20.613Z,5.32
2023-04-11T03:34:48.484Z,5.27
2023-04-11T03:37:16.377Z,5.32
2023-04-11T03:39:44.247Z,5.30
2023-04-11T03:42:13.769Z,5.29
2023-04-11T03:44:41.626Z,5.31
2023-04-11T03:47:09.561Z,5.31
2023-04-11T03:49:37.436Z,5.26
2023-04-11T03:52:05.537Z,5.29
2023-04-11T03:54:33.476Z,5.32
2023-04-11T03:57:01.316Z,5.36
2023-04-11T03:59:30.691Z,5.32
2023-04-11T04:01:58.805Z,5.30
2023-04-11T04:04:27.122Z,5.35
2023-04-11T04:06:57.023Z,5.30
2023-04-11T04:09:25.028Z,5.26
2023-04-11T04:11:52.929Z,5.21
2023-04-11T04:14:20.905Z,5.18
2023-04-11T04:16:50.274Z,5.21
2023-04-11T04:19:18.151Z,5.17
2023-04-11T04:21:46.695Z,5.17
2023-04-11T04:24:14.550Z,5.23
2023-04-11T04:26:42.440Z,5.15
2023-04-11T04:29:12.707Z,5.12
2023-04-11T04:31:41.193Z,5.06
2023-04-11T04:34:11.565Z,5.08
2023-04-11T04:36:47.804Z,5.06
2023-04-11T04:39:18.024Z,5.00
2023-04-11T04:41:48.700Z,5.01
2023-04-11T04:44:17.459Z,4.95
2023-04-11T04:46:45.447Z,4.93
2023-04-11T04:49:14.777Z,5.00
2023-04-11T04:51:42.635Z,4.93
2023-04-11T04:54:10.616Z,4.96
2023-04-11T04:56:38.542Z,4.94
2023-04-11T04:59:06.510Z,4.86
2023-04-11T05:01:35.310Z,4.91
2023-04-11T05:04:03.432Z,4.91
2023-04-11T05:06:33.567Z,4.96
2023-04-11T05:09:03.197Z,4.96
2023-04-11T05:11:31.077Z,4.91
2023-04-11T05:13:58.962Z,5.01
2023-04-11T05:16:27.044Z,5.02
2023-04-11T05:18:55.064Z,5.06
2023-04-11T05:21:23.465Z,5.12
2023-04-11T05:23:52.744Z,5.14
2023-04-11T05:26:20.659Z,5.16
2023-04-11T05:28:48.761Z,5.12
2023-04-11T05:31:17.079Z,5.15
2023-04-11T05:33:45.069Z,5.15
2023-04-11T05:36:14.316Z,5.15
2023-04-11T05:38:42.714Z,5.16
2023-04-11T05:41:12.764Z,5.13
2023-04-11T05:43:40.734Z,5.22
2023-04-11T05:46:09.829Z,5.23
2023-04-11T05:48:38.216Z,5.31
2023-04-11T05:51:06.893Z,5.34
2023-04-11T05:53:34.876Z,5.52
2023-04-11T05:56:02.930Z,5.51
2023-04-11T05:58:32.162Z,5.60
2023-04-11T06:01:00.855Z,5.59
2023-04-11T06:03:28.887Z,5.73
2023-04-11T06:05:57.164Z,5.81
2023-04-11T06:08:25.122Z,5.75
2023-04-11T06:10:53.037Z,5.80
2023-04-11T06:13:20.940Z,5.82
2023-04-11T06:15:50.297Z,5.94
2023-04-11T06:18:18.381Z,5.93
2023-04-11T06:20:47.153Z,6.03
2023-04-11T06:23:15.007Z,6.06
2023-04-11T06:25:42.987Z,6.16
2023-04-11T06:28:11.035Z,6.08
2023-04-11T06:30:38.936Z,6.14
2023-04-11T06:33:08.246Z,6.29
2023-04-11T06:35:36.884Z,6.26
2023-04-11T06:38:04.861Z,6.65
2023-04-11T06:40:32.766Z,6.74
2023-04-11T06:43:01.875Z,6.63
2023-04-11T06:45:30.019Z,6.73
2023-04-11T06:47:57.986Z,6.92
2023-04-11T06:50:27.668Z,6.99
2023-04-11T06:52:55.606Z,6.84
2023-04-11T06:55:24.582Z,6.75
2023-04-11T06:57:52.536Z,6.68
2023-04-11T07:00:21.853Z,6.79
2023-04-11T07:02:50.136Z,6.87
2023-04-11T07:05:18.216Z,7.00
2023-04-11T07:07:47.847Z,6.92
2023-04-11T07:10:15.930Z,6.76
2023-04-11T07:12:44.121Z,6.69
2023-04-11T07:15:12.414Z,6.68
2023-04-11T07:17:40.440Z,6.80
2023-04-11T07:20:10.049Z,6.82
2023-04-11T07:22:38.334Z,6.91
2023-04-11T07:25:08.346Z,7.06
2023-04-11T07:27:36.752Z,7.15
2023-04-11T07:30:04.850Z,7.18
2023-04-11T07:32:32.772Z,7.07
2023-04-11T07:35:00.876Z,7.04
2023-04-11T07:37:30.304Z,7.10
2023-04-11T07:39:58.192Z,7.23
2023-04-11T07:42:27.524Z,7.42
2023-04-11T07:44:55.593Z,7.65
2023-04-11T07:47:23.521Z,7.81
2023-04-11T07:49:51.358Z,7.92
2023-04-11T07:52:19.353Z,7.85
2023-04-11T07:54:47.288Z,7.83
2023-04-11T07:57:15.466Z,8.01
2023-04-11T07:59:45.020Z,7.92
2023-04-11T08:02:14.350Z,7.72
2023-04-11T08:04:42.568Z,7.76
2023-04-11T08:07:11.480Z,8.06
2023-04-11T08:09:39.353Z,8.14
2023-04-11T08:12:07.467Z,8.32
2023-04-11T08:14:35.749Z,8.25
2023-04-11T08:17:12.030Z,8.16
2023-04-11T08:19:45.960Z,8.25
2023-04-11T08:22:13.901Z,8.55
2023-04-11T08:24:41.953Z,8.53
2023-04-11T08:27:09.862Z,8.46
2023-04-11T08:29:37.781Z,8.43
2023-04-11T08:32:07.578Z,8.40
2023-04-11T08:34:35.603Z,8.57
2023-04-11T08:37:04.705Z,8.50
2023-04-11T08:39:32.686Z,8.46
2023-04-11T08:42:01.061Z,8.42
2023-04-11T08:44:29.000Z,8.47
2023-04-11T08:46:56.913Z,8.65
2023-04-11T08:49:26.210Z,8.63
2023-04-11T08:51:56.233Z,8.60
2023-04-11T08:54:24.078Z,8.57
2023-04-11T08:56:52.134Z,8.71
2023-04-11T08:59:20.032Z,8.83
2023-04-11T09:01:49.737Z,9.04
2023-04-11T09:04:17.767Z,9.12
2023-04-11T09:07:00.581Z,9.45
2023-04-11T09:09:31.911Z,9.62
2023-04-11T09:11:59.988Z,9.42
2023-04-11T09:14:28.504Z,9.26
2023-04-11T09:16:58.652Z,9.13
2023-04-11T09:19:27.328Z,9.39
2023-04-11T09:22:00.720Z,9.70
2023-04-11T09:24:29.669Z,9.76
2023-04-11T09:27:11.878Z,10.34
2023-04-11T09:29:41.902Z,10.79
2023-04-11T09:32:27.616Z,10.90
2023-04-11T09:35:09.712Z,11.03
2023-04-11T09:37:47.585Z,10.60
2023-04-11T09:40:16.957Z,10.20
2023-04-11T09:42:45.621Z,10.12
2023-04-11T09:45:20.615Z,10.18
2023-04-11T09:47:50.046Z,9.95
2023-04-11T09:50:18.716Z,9.60
2023-04-11T09:52:48.186Z,9.65
2023-04-11T09:55:19.339Z,9.58
2023-04-11T09:57:49.422Z,9.61
2023-04-11T10:00:21.846Z,9.55
2023-04-11T10:02:52.902Z,9.64
2023-04-11T10:05:22.128Z,9.62
2023-04-11T10:07:56.379Z,9.66
2023-04-11T10:10:25.923Z,9.80
2023-04-11T10:12:53.835Z,10.01
2023-04-11T10:15:22.494Z,10.14
2023-04-11T10:18:09.719Z,10.36
2023-04-11T10:20:46.236Z,10.60
2023-04-11T10:23:16.674Z,10.37
2023-04-11T10:26:00.479Z,10.45
2023-04-11T10:28:38.256Z,10.41
2023-04-11T10:31:09.080Z,10.50
2023-04-11T10:33:38.756Z,10.62
2023-04-11T10:36:10.221Z,10.76
2023-04-11T10:38:50.018Z,11.40
2023-04-11T10:41:28.105Z,11.96
2023-04-11T10:44:18.285Z,12.33
2023-04-11T10:46:51.217Z,12.45
2023-04-11T10:49:39.320Z,12.85
2023-04-11T10:52:25.350Z,13.01
2023-04-11T10:54:55.825Z,13.11
2023-04-11T10:57:23.950Z,13.31
2023-04-11T10:59:59.652Z,13.29
2023-04-11T11:02:39.094Z,12.88
2023-04-11T11:05:20.585Z,13.53
2023-04-11T11:07:51.728Z,13.38
2023-04-11T11:10:46.248Z,13.48
2023-04-11T11:13:16.913Z,13.09
2023-04-11T11:15:49.627Z,12.88
2023-04-11T11:18:19.183Z,12.45
2023-04-11T11:20:47.155Z,12.00
2023-04-11T11:23:15.033Z,11.60
2023-04-11T11:25:55.403Z,11.40
2023-04-11T11:28:23.922Z,11.39
2023-04-11T11:30:54.852Z,11.48
2023-04-11T11:33:25.119Z,11.42
2023-04-11T11:35:55.614Z,11.75
2023-04-11T11:38:26.088Z,12.42
2023-04-11T11:40:56.027Z,12.86
2023-04-11T11:43:24.229Z,12.78
2023-04-11T11:46:11.059Z,12.84
2023-04-11T11:48:39.115Z,12.85
2023-04-11T11:51:07.764Z,13.32
2023-04-11T11:53:35.914Z,13.67
2023-04-11T11:56:16.361Z,14.62
2023-04-11T11:58:45.650Z,15.28
2023-04-11T12:01:17.578Z,14.76
2023-04-11T12:03:48.453Z,14.33
2023-04-11T12:06:17.283Z,14.12
2023-04-11T12:08:50.280Z,14.32
2023-04-11T12:11:19.714Z,13.82
2023-04-11T12:13:53.408Z,13.06
2023-04-11T12:16:23.915Z,12.58
2023-04-11T12:18:52.055Z,12.65
2023-04-11T12:21:20.119Z,13.44
2023-04-11T12:23:47.968Z,13.93
2023-04-11T12:26:17.621Z,14.23
2023-04-11T12:28:46.984Z,14.75
2023-04-11T12:31:14.976Z,14.07
2023-04-11T12:33:42.875Z,13.78
2023-04-11T12:36:12.253Z,13.52
2023-04-11T12:38:40.209Z,12.99
2023-04-11T12:41:30.038Z,12.38
2023-04-11T12:43:57.738Z,12.54
2023-04-11T12:46:26.404Z,12.86
2023-04-11T12:48:54.702Z,13.62
2023-04-11T12:51:22.680Z,13.66
2023-04-11T12:53:52.749Z,14.10
2023-04-11T12:56:20.701Z,14.62
2023-04-11T12:58:48.575Z,14.58
2023-04-11T13:01:18.308Z,14.22
2023-04-11T13:03:46.338Z,13.43
2023-04-11T13:06:14.365Z,13.04
2023-04-11T13:08:42.403Z,12.78
2023-04-11T13:11:10.352Z,12.78
2023-04-11T13:13:38.206Z,12.78
2023-04-11T13:16:07.296Z,12.76
2023-04-11T13:18:36.705Z,12.92
2023-04-11T13:21:04.646Z,13.30
2023-04-11T13:23:32.556Z,13.38
2023-04-11T13:26:01.076Z,12.77
2023-04-11T13:28:29.885Z,12.68
2023-04-11T13:30:59.044Z,12.47
2023-04-11T13:33:27.410Z,12.29
2023-04-11T13:35:56.701Z,11.94
2023-04-11T13:38:25.700Z,11.92
2023-04-11T13:40:53.634Z,12.17
2023-04-11T13:43:21.741Z,12.00
2023-04-11T13:45:49.690Z,12.10
2023-04-11T13:48:17.722Z,12.08
2023-04-11T13:50:45.622Z,12.28
2023-04-11T13:53:14.859Z,12.27
2023-04-11T13:55:45.092Z,12.54
2023-04-11T13:58:14.404Z,12.57
2023-04-11T14:00:42.458Z,12.27
2023-04-11T14:03:10.434Z,12.55
2023-04-11T14:05:38.464Z,13.07
2023-04-11T14:08:07.184Z,12.46
2023-04-11T14:10:36.519Z,12.24
2023-04-11T14:13:05.460Z,12.62
2023-04-11T14:15:33.553Z,12.55
2023-04-11T14:18:02.745Z,12.52
2023-04-11T14:20:30.761Z,12.67
2023-04-11T14:22:58.724Z,12.29
2023-04-11T14:25:26.645Z,12.00
2023-04-11T14:27:56.197Z,11.85
2023-04-11T14:30:24.496Z,12.01
2023-04-11T14:32:52.538Z,11.98
2023-04-11T14:35:20.497Z,11.84
2023-04-11T14:37:49.479Z,11.69
2023-04-11T14:40:17.807Z,11.90
2023-04-11T14:42:45.920Z,11.77
2023-04-11T14:45:15.317Z,11.63
2023-04-11T14:47:43.572Z,11.55
2023-04-11T14:50:12.137Z,11.54
2023-04-11T14:52:40.190Z,11.60
2023-04-11T14:55:09.436Z,11.67
2023-04-11T14:57:46.351Z,11.73
2023-04-11T15:00:20.863Z,11.74
2023-04-11T15:02:50.751Z,11.64
2023-04-11T15:05:20.256Z,11.70
2023-04-11T15:07:49.383Z,11.37
2023-04-11T15:10:19.226Z,11.43
2023-04-11T15:12:47.270Z,11.48
2023-04-11T15:15:16.816Z,11.61
2023-04-11T15:17:48.079Z,11.59
2023-04-11T15:20:16.988Z,11.54
2023-04-11T15:22:46.599Z,11.43
2023-04-11T15:25:16.838Z,11.53
2023-04-11T15:27:44.841Z,11.43
2023-04-11T15:30:13.675Z,11.37
2023-04-11T15:32:44.710Z,11.30
2023-04-11T15:35:12.881Z,11.20
2023-04-11T15:37:41.085Z,11.22
2023-04-11T15:40:12.367Z,11.22
2023-04-11T15:42:40.995Z,11.23
2023-04-11T15:45:09.422Z,11.26
2023-04-11T15:47:37.435Z,11.23
2023-04-11T15:50:07.723Z,11.17
2023-04-11T15:52:35.757Z,11.19
2023-04-11T15:55:03.706Z,11.35
2023-04-11T15:57:31.571Z,11.57
2023-04-11T15:59:59.901Z,11.63
2023-04-11T16:02:28.538Z,11.44
2023-04-11T16:04:56.853Z,11.34
2023-04-11T16:07:27.460Z,11.16
2023-04-11T16:09:56.736Z,11.13
2023-04-11T16:12:24.613Z,11.19
2023-04-11T16:14:52.542Z,11.02
2023-04-11T16:17:20.720Z,11.11
2023-04-11T16:19:52.051Z,11.05
2023-04-11T16:22:21.027Z,11.04
2023-04-11T16:24:50.474Z,10.73
2023-04-11T16:27:19.798Z,10.81
2023-04-11T16:29:47.748Z,10.76
2023-04-11T16:32:15.639Z,10.69
2023-04-11T16:34:43.536Z,10.55
2023-04-11T16:37:11.481Z,10.54
2023-04-11T16:39:39.473Z,10.48
2023-04-11T16:42:09.271Z,10.46
2023-04-11T16:44:37.641Z,10.45
2023-04-11T16:47:05.916Z,10.38
2023-04-11T16:49:33.806Z,10.36
2023-04-11T16:52:01.763Z,10.28
2023-04-11T16:54:29.796Z,10.26
2023-04-11T16:56:57.789Z,10.27
2023-04-11T16:59:28.204Z,10.25
2023-04-11T17:01:56.172Z,10.26
2023-04-11T17:04:24.221Z,10.16
2023-04-11T17:06:52.185Z,10.11
2023-04-11T17:09:20.267Z,10.04
2023-04-11T17:11:48.120Z,10.12
2023-04-11T17:14:16.371Z,10.06
2023-04-11T17:16:46.104Z,10.10
2023-04-11T17:19:14.122Z,10.10
2023-04-11T17:21:42.161Z,9.98
2023-04-11T17:24:10.061Z,10.09
2023-04-11T17:26:38.001Z,10.06
2023-04-11T17:29:06.662Z,10.03
2023-04-11T17:31:34.583Z,9.96
2023-04-11T17:34:04.448Z,9.93
2023-04-11T17:36:32.404Z,9.94
2023-04-11T17:39:00.360Z,9.93
2023-04-11T17:41:28.347Z,9.94
2023-04-11T17:43:57.214Z,9.88
2023-04-11T17:46:25.371Z,9.87
2023-04-11T17:48:53.324Z,9.88
2023-04-11T17:51:22.620Z,9.86
2023-04-11T17:53:50.758Z,9.81
2023-04-11T17:56:18.954Z,9.85
2023-04-11T17:58:48.193Z,9.78
2023-04-11T18:01:16.258Z,9.75
2023-04-11T18:03:44.389Z,9.72
2023-04-11T18:06:12.336Z,9.60
2023-04-11T18:11:12.746Z,9.74
2023-04-11T18:13:40.946Z,9.69
2023-04-11T18:16:10.958Z,9.69
2023-04-11T18:18:39.269Z,9.71
2023-04-11T18:21:08.008Z,9.73
2023-04-11T18:23:36.083Z,9.73
2023-04-11T18:26:05.494Z,9.73
2023-04-11T18:28:33.388Z,9.71
2023-04-11T18:31:01.714Z,9.72
2023-04-11T18:33:29.765Z,9.68
2023-04-11T18:35:57.724Z,9.71
2023-04-11T18:38:25.693Z,9.66
2023-04-11T18:40:56.142Z,9.66
2023-04-11T18:43:26.200Z,9.61
2023-04-11T18:45:54.088Z,9.63
2023-04-11T18:48:22.108Z,9.61
2023-04-11T18:50:59.275Z,9.58
2023-04-11T18:53:28.386Z,9.58
2023-04-11T18:55:56.337Z,9.57
2023-04-11T18:58:26.094Z,9.56
2023-04-11T19:00:55.973Z,9.52
2023-04-11T19:03:24.294Z,9.52
2023-04-11T19:05:53.016Z,9.52
2023-04-11T19:08:21.181Z,9.47
2023-04-11T19:10:52.195Z,9.51
2023-04-11T19:13:20.144Z,9.39
2023-04-11T19:15:48.308Z,9.35
2023-04-11T19:18:18.048Z,9.42
2023-04-11T19:20:46.113Z,9.45
2023-04-11T19:23:14.006Z,9.38
2023-04-11T19:25:42.892Z,9.33
2023-04-11T19:28:11.005Z,9.37
2023-04-11T19:30:39.337Z,9.34
2023-04-11T19:33:07.798Z,9.24
2023-04-11T19:35:37.166Z,9.22
2023-04-11T19:38:05.895Z,9.22
2023-04-11T19:40:35.743Z,9.13
2023-04-11T19:43:04.644Z,9.18
2023-04-11T19:45:32.751Z,9.14
2023-04-11T19:48:00.820Z,9.10
2023-04-11T19:50:28.936Z,9.07
2023-04-11T19:52:58.363Z,8.96
2023-04-11T19:55:27.351Z,8.97
2023-04-11T19:57:56.459Z,8.88
2023-04-11T20:00:26.580Z,8.91
2023-04-11T20:02:55.387Z,8.82
2023-04-11T20:05:23.895Z,8.82
2023-04-11T20:07:51.776Z,8.65
2023-04-11T20:10:20.984Z,8.78
2023-04-11T20:12:48.928Z,8.76
2023-04-11T20:15:16.995Z,8.72
2023-04-11T20:17:47.270Z,8.75
2023-04-11T20:20:16.919Z,8.65
2023-04-11T20:22:45.854Z,8.62
2023-04-11T20:25:13.804Z,8.64
2023-04-11T20:27:44.256Z,8.60
2023-04-11T20:30:13.217Z,8.58
2023-04-11T20:32:41.998Z,8.51
2023-04-11T20:35:12.136Z,8.48
2023-04-11T20:37:41.451Z,8.42
2023-04-11T20:40:10.741Z,8.48
2023-04-11T20:42:41.753Z,8.44
2023-04-11T20:45:13.275Z,8.46
2023-04-11T20:47:41.971Z,8.40
2023-04-11T20:50:14.114Z,8.42
2023-04-11T20:52:43.468Z,8.40
2023-04-11T20:55:11.867Z,8.35
2023-04-11T20:57:39.781Z,8.34
2023-04-11T21:00:13.915Z,8.37
2023-04-11T21:02:45.829Z,8.37
2023-04-11T21:05:14.622Z,8.31
2023-04-11T21:07:43.303Z,8.39
2023-04-11T21:10:12.241Z,8.28
2023-04-11T21:12:40.906Z,8.32
2023-04-11T21:15:10.025Z,8.38
2023-04-11T21:17:39.435Z,8.36
2023-04-11T21:20:17.905Z,8.33
2023-04-11T21:22:46.488Z,8.34
2023-04-11T21:25:14.624Z,8.33
2023-04-11T21:27:42.684Z,8.42
2023-04-11T21:30:12.067Z,8.40
2023-04-11T21:32:40.969Z,8.42
2023-04-11T21:35:11.957Z,8.41
2023-04-11T21:37:40.517Z,8.39
2023-04-11T21:40:09.355Z,8.39
2023-04-11T21:42:37.310Z,8.37
2023-04-11T21:45:05.581Z,8.39
2023-04-11T21:47:33.518Z,8.37
2023-04-11T21:50:01.532Z,8.35
2023-04-11T21:52:30.816Z,8.41
2023-04-11T21:54:58.723Z,8.39
2023-04-11T21:57:27.153Z,8.44
2023-04-11T21:59:55.035Z,8.44
2023-04-11T22:02:23.115Z,8.41
2023-04-11T22:05:04.610Z,8.44
2023-04-11T22:07:39.468Z,8.41
2023-04-11T22:10:10.499Z,8.39
2023-04-11T22:12:39.153Z,8.40
2023-04-11T22:15:08.196Z,8.38
2023-04-11T22:17:37.245Z,8.36
2023-04-11T22:20:11.217Z,8.35
2023-04-11T22:22:40.510Z,8.33
2023-04-11T22:25:10.010Z,8.34
2023-04-11T22:27:38.539Z,8.36
2023-04-11T22:30:08.813Z,8.34
2023-04-11T22:32:37.009Z,8.29
2023-04-11T22:35:05.687Z,8.35
2023-04-11T22:37:33.551Z,8.37
2023-04-11T22:40:06.085Z,8.41
2023-04-11T22:42:33.990Z,8.38
2023-04-11T22:45:01.896Z,8.36
2023-04-11T22:47:32.540Z,8.30
2023-04-11T22:50:00.608Z,8.31
2023-04-11T22:52:30.361Z,8.31
2023-04-11T22:54:58.328Z,8.30
2023-04-11T22:57:27.595Z,8.31
2023-04-11T22:59:55.467Z,8.33
2023-04-11T23:02:25.354Z,8.35
2023-04-11T23:04:53.700Z,8.35
2023-04-11T23:07:22.387Z,8.36
2023-04-11T23:09:52.652Z,8.32
2023-04-11T23:12:21.049Z,8.34
2023-04-11T23:14:50.455Z,8.30
2023-04-11T23:17:18.429Z,8.30
2023-04-11T23:19:47.208Z,8.30
2023-04-11T23:22:15.078Z,8.29
2023-04-11T23:24:42.993Z,8.28
2023-04-11T23:27:11.677Z,8.27
2023-04-11T23:29:39.808Z,8.26
2023-04-11T23:32:09.407Z,8.22
2023-04-11T23:34:37.309Z,8.23
2023-04-11T23:37:05.204Z,8.22
2023-04-11T23:39:33.073Z,8.22
2023-04-11T23:42:01.067Z,8.16
2023-04-11T23:44:28.908Z,8.15
2023-04-11T23:46:56.957Z,8.15
2023-04-11T23:49:26.751Z,8.16
2023-04-11T23:51:54.621Z,8.20
2023-04-11T23:54:22.499Z,8.20
2023-04-11T23:56:50.906Z,8.18
2023-04-11T23:59:18.730Z,8.19
